CW6928 Weather Reports


Display with metric or nautical units.
time (UTC)temp
F
wind
direction
speed
MPH
gust
MPH
rain 1hr
in
rain 24hr
in
rain mn
in
humidity
%
barometer
mb
20210417103310 38 0 0.0 0.0 0.00 0.00 0.00 71 1017.0
20210417101709 37 0 0.0 0.0 0.00 0.00 0.00 72 1016.9
20210417100146 37 0 0.0 0.0 0.00 0.00 0.00 73 1016.9
20210417094650 37 0 0.0 0.0 0.00 0.00 0.00 71 1016.9
20210417093105 38 0 0.0 0.0 0.00 0.00 0.00 69 1016.9
20210417091647 38 0 0.0 0.0 0.00 0.00 0.00 68 1016.9
20210417090251 39 0 0.0 0.0 0.00 0.00 0.00 67 1017.0
20210417084641 39 0 0.0 0.0 0.00 0.00 0.00 67 1017.0
20210417083228 39 0 0.0 0.0 0.00 0.00 0.00 65 1016.9
20210417081646 39 0 0.0 0.0 0.00 0.00 0.00 64 1017.1
20210417080114 40 0 0.0 0.0 0.00 0.00 0.00 61 1017.1
20210417074826 41 0 0.0 0.0 0.00 0.00 0.00 59 1017.0
20210417073217 41 0 0.0 0.0 0.00 0.00 0.00 58 1017.1
20210417071722 40 0 0.0 0.0 0.00 0.00 0.00 59 1017.1
20210417070216 41 0 0.0 0.0 0.00 0.00 0.00 57 1017.1
20210417065031 42 0 0.0 0.0 0.00 0.00 0.00 56 1017.1
20210417063304 43 0 0.0 0.0 0.00 0.00 0.00 53 1017.2
20210417061645 44 0 0.0 0.0 0.00 0.00 0.00 52 1017.2
20210417060250 43 0 0.0 1.0 0.00 0.00 0.00 52 1017.1
20210417054718 44 0 0.0 0.0 0.00 0.00 0.00 51 1017.1
20210417053330 44 0 0.0 0.0 0.00 0.00 0.00 51 1017.0
20210417051738 45 0 0.0 0.0 0.00 0.00 0.00 51 1017.0
20210417050218 46 0 0.0 1.0 0.00 0.00 0.00 49 1016.9
20210417044742 46 0 0.0 2.0 0.00 0.00 0.00 48 1016.8
20210417043207 47 0 0.0 1.0 0.00 0.00 0.00 47 1017.0
20210417041623 48 0 0.0 1.0 0.00 0.00 0.00 46 1016.9
20210417040249 48 0 0.0 3.0 0.00 0.00 0.00 46 1016.9
20210417034624 48 0 0.0 3.0 0.00 0.00 0.00 46 1016.9
20210417033255 49 0 0.0 2.0 0.00 0.00 0.00 47 1016.9
20210417031743 49 0 0.0 2.0 0.00 0.00 0.00 48 1017.0
20210417030142 49 0 0.0 0.0 0.00 0.00 0.00 47 1016.8
20210417024641 50 0 0.0 0.0 0.00 0.00 0.00 47 1016.9
20210417023213 50 0 0.0 0.0 0.00 0.00 0.00 46 1016.9
20210417021701 51 0 0.0 1.0 0.00 0.00 0.00 45 1016.9
20210417020159 50 0 0.0 2.0 0.00 0.00 0.00 47 1016.8
20210417014750 49 0 0.0 0.0 0.00 0.00 0.00 48 1016.7
20210417013250 51 0 0.0 0.0 0.00 0.00 0.00 48 1016.5
20210417011616 53 0 0.0 0.0 0.00 0.00 0.00 44 1016.3
20210417010241 54 0 0.0 2.0 0.00 0.00 0.00 39 1016.2
20210417004850 55 0 0.0 0.0 0.00 0.00 0.00 38 1016.1
20210417003237 55 0 0.0 3.0 0.00 0.00 0.00 37 1016.1
20210417001701 56 0 0.0 5.0 0.00 0.00 0.00 35 1016.1
20210417000318 57 15 0.0 3.0 0.00 0.00 0.00 34 1016.0
20210416234633 58 0 0.0 5.0 0.00 0.00 0.00 34 1016.1
20210416233320 58 37 0.0 8.0 0.00 0.00 0.00 33 1015.9
20210416231626 58 5 0.0 7.0 0.00 0.00 0.00 34 1016.0
20210416230244 58 0 1.0 5.0 0.00 0.00 0.00 31 1015.9
20210416224743 59 0 0.0 4.0 0.00 0.00 0.00 31 1015.9
20210416223137 59 0 1.0 8.0 0.00 0.00 0.00 31 1015.9
20210416221623 59 53 1.0 8.0 0.00 0.00 0.00 31 1015.9
20210416220221 58 0 0.0 9.0 0.00 0.00 0.00 32 1015.7
20210416214911 58 61 0.0 8.0 0.00 0.00 0.00 31 1015.9
20210416213208 59 350 0.0 8.0 0.00 0.00 0.00 33 1016.0
20210416212735 59 30 1.0 0.0 0.00 0.00 0.00 33 1011.7
20210416211616 58 0 1.0 5.0 0.00 0.00 0.00 33 1016.0
20210416211325 59 5 1.0 0.0 0.00 0.00 0.00 33 1011.7
20210416210325 59 53 0.0 0.0 0.00 0.00 0.00 36 1011.7
20210416210203 58 0 0.0 6.0 0.00 0.00 0.00 34 1016.2
20210416205446 60 51 1.0 0.0 0.00 0.00 0.00 32 1011.7
20210416204738 59 0 1.0 9.0 0.00 0.00 0.00 33 1016.3
20210416204326 60 46 1.0 0.0 0.00 0.00 0.00 33 1011.8
20210416203334 59 94 1.0 0.0 0.00 0.00 0.00 36 1012.0
20210416203246 58 0 0.0 6.0 0.00 0.00 0.00 34 1016.3
20210416202652 59 304 1.0 0.0 0.00 0.00 0.00 35 1012.0
20210416201712 58 355 1.0 7.0 0.00 0.00 0.00 36 1016.4
20210416201326 59 67 1.0 0.0 0.00 0.00 0.00 38 1012.0
20210416200320 59 19 1.0 0.0 0.00 0.00 0.00 38 1012.2
20210416200150 58 0 0.0 4.0 0.00 0.00 0.00 39 1016.5
20210416195835 59 61 1.0 0.0 0.00 0.00 0.00 40 1012.2
20210416195027 57 23 0.0 7.0 0.00 0.00 0.00 37 1016.9
20210416194331 58 333 2.0 0.0 0.00 0.00 0.00 37 1012.2
20210416193456 59 272 1.0 0.0 0.00 0.00 0.00 37 1012.5
20210416193358 58 0 0.0 6.0 0.00 0.00 0.00 38 1016.9
20210416193059 58 355 1.0 0.0 0.00 0.00 0.00 40 1012.5
20210416191843 57 0 1.0 11.0 0.00 0.00 0.00 40 1017.1
20210416191323 58 344 2.0 0.0 0.00 0.00 0.00 40 1012.6
20210416190322 56 23 1.0 0.0 0.00 0.00 0.00 42 1012.5
20210416190220 55 0 1.0 7.0 0.00 0.00 0.00 40 1017.0
20210416185356 56 355 2.0 0.0 0.00 0.00 0.00 40 1012.5
20210416184740 56 0 1.0 6.0 0.00 0.00 0.00 41 1017.0
20210416184331 57 44 1.0 0.0 0.00 0.00 0.00 41 1012.5
20210416183332 57 13 2.0 0.0 0.00 0.00 0.00 41 1012.8
20210416183119 56 5 1.0 9.0 0.00 0.00 0.00 40 1017.1
20210416182759 56 18 1.0 0.0 0.00 0.00 0.00 42 1012.8
20210416181907 55 0 1.0 12.0 0.00 0.00 0.00 40 1017.2
20210416181322 56 338 3.0 0.0 0.00 0.00 0.00 40 1012.8
20210416180315 58 334 1.0 0.0 0.00 0.00 0.00 42 1013.0
20210416180141 57 13 1.0 5.0 0.00 0.00 0.00 43 1017.3
20210416175508 56 28 1.0 0.0 0.00 0.00 0.00 41 1013.0
20210416174622 56 0 0.0 9.0 0.00 0.00 0.00 41 1017.4
20210416174330 57 88 2.0 0.0 0.00 0.00 0.00 43 1013.0
20210416173326 57 47 2.0 0.0 0.00 0.00 0.00 41 1013.3
20210416173133 56 349 0.0 8.0 0.00 0.00 0.00 38 1017.5
20210416172745 57 61 1.0 0.0 0.00 0.00 0.00 41 1013.3
20210416171627 55 5 1.0 9.0 0.00 0.00 0.00 39 1017.6
20210416171321 56 318 2.0 0.0 0.00 0.00 0.00 40 1013.4
20210416170324 56 24 3.0 0.0 0.00 0.00 0.00 40 1013.5
20210416170134 54 0 2.0 8.0 0.00 0.00 0.00 39 1017.6
20210416165826 56 355 1.0 0.0 0.00 0.00 0.00 39 1013.5
20210416164917 54 350 0.0 6.0 0.00 0.00 0.00 44 1017.9
20210416164335 55 340 2.0 0.0 0.00 0.00 0.00 41 1013.7
20210416163328 54 355 0.0 8.0 0.00 0.00 0.00 43 1018.0
20210416162613 55 42 1.0 0.0 0.00 0.00 0.00 44 1014.0
20210416161646 54 22 2.0 7.0 0.00 0.00 0.00 42 1018.2
20210416161319 55 360 2.0 0.0 0.00 0.00 0.00 44 1014.0
20210416160346 54 52 1.0 0.0 0.00 0.00 0.00 52 1014.1
20210416160157 52 0 0.0 5.0 0.00 0.00 0.00 52 1018.1
20210416155758 53 5 2.0 0.0 0.00 0.00 0.00 52 1014.1
20210416154644 52 39 0.0 6.0 0.00 0.00 0.00 52 1018.3
20210416154328 52 39 2.0 0.0 0.00 0.00 0.00 53 1014.2
20210416153325 52 43 1.0 0.0 0.00 0.00 0.00 57 1014.3
20210416153228 51 0 0.0 4.0 0.00 0.00 0.00 55 1018.3
20210416152603 52 51 1.0 0.0 0.00 0.00 0.00 58 1014.3
20210416151744 51 0 0.0 5.0 0.00 0.00 0.00 60 1018.5
20210416151339 51 311 1.0 0.0 0.00 0.00 0.00 59 1014.3
20210416150409 51 13 0.0 0.0 0.00 0.00 0.00 62 1014.4
20210416150321 50 13 0.0 2.0 0.00 0.00 0.00 62 1018.5
20210416145844 50 13 1.0 0.0 0.00 0.00 0.00 64 1014.4
20210416144741 49 13 0.0 3.0 0.00 0.00 0.00 64 1018.7
20210416144324 50 13 0.0 0.0 0.00 0.00 0.00 68 1014.5
20210416143322 49 13 0.0 0.0 0.00 0.00 0.00 64 1014.7
20210416143218 48 0 0.0 0.0 0.00 0.00 0.00 65 1018.7
20210416142820 48 13 0.0 0.0 0.00 0.00 0.00 67 1014.7
20210416141629 47 0 0.0 4.0 0.00 0.00 0.00 66 1018.8
20210416141331 48 30 0.0 0.0 0.00 0.00 0.00 67 1014.6
20210416140329 48 344 0.0 0.0 0.00 0.00 0.00 68 1014.8
20210416140257 47 343 0.0 2.0 0.00 0.00 0.00 69 1018.8
20210416135856 47 345 0.0 0.0 0.00 0.00 0.00 72 1014.8
20210416134642 45 0 0.0 3.0 0.00 0.00 0.00 73 1018.8
20210416134320 46 12 1.0 0.0 0.00 0.00 0.00 74 1014.7
20210416133316 45 19 1.0 0.0 0.00 0.00 0.00 77 1015.0
20210416133223 44 19 0.0 4.0 0.00 0.00 0.00 77 1019.0
20210416132741 45 36 0.0 0.0 0.00 0.00 0.00 79 1015.0
20210416131655 43 0 0.0 2.0 0.00 0.00 0.00 80 1019.2
20210416131331 44 36 0.0 0.0 0.00 0.00 0.00 81 1015.2
20210416130327 43 318 0.0 0.0 0.00 0.00 0.00 84 1015.2
20210416130235 42 0 0.0 1.0 0.00 0.00 0.00 84 1019.2
20210416124625 40 0 0.0 1.0 0.00 0.00 0.00 89 1019.3
20210416124328 41 318 0.0 0.0 0.00 0.00 0.00 89 1015.4
20210416123320 40 318 0.0 0.0 0.00 0.00 0.00 90 1015.3
20210416123232 39 0 0.0 0.0 0.00 0.00 0.00 90 1019.3
20210416122753 39 318 0.0 0.0 0.00 0.00 0.00 92 1015.3
20210416121755 38 0 0.0 0.0 0.00 0.00 0.00 91 1019.1
20210416120146 37 0 0.0 1.0 0.00 0.00 0.00 92 1018.9
20210416114634 37 0 0.0 0.0 0.00 0.00 0.00 91 1018.8
20210416113231 37 0 0.0 0.0 0.00 0.00 0.00 91 1018.9
20210416111651 37 0 0.0 0.0 0.00 0.00 0.00 90 1018.7
20210416110121 38 0 0.0 0.0 0.00 0.00 0.00 90 1018.7
20210416104657 38 0 0.0 0.0 0.00 0.00 0.00 90 1018.7